sensor_id;sensor_type;location;lat;lon;timestamp;P1;durP1;ratioP1;P2;durP2;ratioP2
1446;SDS011;717;51.522;7.266;2023-04-09T00:01:03;23.80;;;16.20;;
1446;SDS011;717;51.522;7.266;2023-04-09T00:03:32;22.98;;;16.45;;
1446;SDS011;717;51.522;7.266;2023-04-09T00:06:01;20.60;;;15.07;;
1446;SDS011;717;51.522;7.266;2023-04-09T00:08:30;24.90;;;16.80;;
1446;SDS011;717;51.522;7.266;2023-04-09T00:10:58;22.45;;;15.82;;
1446;SDS011;717;51.522;7.266;2023-04-09T00:13:29;26.40;;;16.92;;
1446;SDS011;717;51.522;7.266;2023-04-09T00:15:58;23.08;;;16.10;;
1446;SDS011;717;51.522;7.266;2023-04-09T00:18:26;24.85;;;15.95;;
1446;SDS011;717;51.522;7.266;2023-04-09T00:20:55;23.15;;;16.63;;
1446;SDS011;717;51.522;7.266;2023-04-09T00:23:23;23.85;;;16.38;;
1446;SDS011;717;51.522;7.266;2023-04-09T00:25:52;25.13;;;16.48;;
1446;SDS011;717;51.522;7.266;2023-04-09T00:28:20;24.42;;;17.13;;
1446;SDS011;717;51.522;7.266;2023-04-09T00:30:52;26.45;;;17.17;;
1446;SDS011;717;51.522;7.266;2023-04-09T00:33:21;25.77;;;17.10;;
1446;SDS011;717;51.522;7.266;2023-04-09T00:35:50;23.95;;;16.02;;
1446;SDS011;717;51.522;7.266;2023-04-09T00:38:18;22.20;;;16.23;;
1446;SDS011;717;51.522;7.266;2023-04-09T00:40:47;24.33;;;16.83;;
1446;SDS011;717;51.522;7.266;2023-04-09T00:43:16;23.77;;;16.98;;
1446;SDS011;717;51.522;7.266;2023-04-09T00:45:45;26.35;;;17.45;;
1446;SDS011;717;51.522;7.266;2023-04-09T00:48:17;26.08;;;17.58;;
1446;SDS011;717;51.522;7.266;2023-04-09T00:50:46;26.20;;;17.63;;
1446;SDS011;717;51.522;7.266;2023-04-09T00:53:15;25.70;;;17.55;;
1446;SDS011;717;51.522;7.266;2023-04-09T00:55:44;25.70;;;16.95;;
1446;SDS011;717;51.522;7.266;2023-04-09T00:58:13;24.33;;;17.05;;
1446;SDS011;717;51.522;7.266;2023-04-09T01:00:42;25.23;;;18.02;;
1446;SDS011;717;51.522;7.266;2023-04-09T01:03:10;25.73;;;16.92;;
1446;SDS011;717;51.522;7.266;2023-04-09T01:05:43;24.90;;;16.83;;
1446;SDS011;717;51.522;7.266;2023-04-09T01:08:23;26.83;;;17.80;;
1446;SDS011;717;51.522;7.266;2023-04-09T01:11:02;26.60;;;17.55;;
1446;SDS011;717;51.522;7.266;2023-04-09T01:13:38;27.33;;;17.98;;
1446;SDS011;717;51.522;7.266;2023-04-09T01:16:13;28.50;;;17.92;;
1446;SDS011;717;51.522;7.266;2023-04-09T01:18:47;24.42;;;16.60;;
1446;SDS011;717;51.522;7.266;2023-04-09T01:21:22;28.58;;;17.58;;
1446;SDS011;717;51.522;7.266;2023-04-09T01:23:56;28.05;;;17.52;;
1446;SDS011;717;51.522;7.266;2023-04-09T01:26:40;28.65;;;18.10;;
1446;SDS011;717;51.522;7.266;2023-04-09T01:29:24;28.90;;;18.08;;
1446;SDS011;717;51.522;7.266;2023-04-09T01:31:53;25.60;;;16.60;;
1446;SDS011;717;51.522;7.266;2023-04-09T01:34:22;23.90;;;16.52;;
1446;SDS011;717;51.522;7.266;2023-04-09T01:36:54;26.88;;;16.48;;
1446;SDS011;717;51.522;7.266;2023-04-09T01:39:24;26.05;;;16.38;;
1446;SDS011;717;51.522;7.266;2023-04-09T01:41:53;25.90;;;18.02;;
1446;SDS011;717;51.522;7.266;2023-04-09T01:44:25;27.98;;;18.17;;
1446;SDS011;717;51.522;7.266;2023-04-09T01:46:55;24.20;;;17.48;;
1446;SDS011;717;51.522;7.266;2023-04-09T01:49:25;27.15;;;17.98;;
1446;SDS011;717;51.522;7.266;2023-04-09T01:51:55;28.58;;;18.45;;
1446;SDS011;717;51.522;7.266;2023-04-09T01:54:24;29.80;;;19.25;;
1446;SDS011;717;51.522;7.266;2023-04-09T01:56:52;26.92;;;17.85;;
1446;SDS011;717;51.522;7.266;2023-04-09T01:59:26;25.60;;;16.70;;
1446;SDS011;717;51.522;7.266;2023-04-09T02:01:57;27.83;;;18.20;;
1446;SDS011;717;51.522;7.266;2023-04-09T02:04:29;27.35;;;17.77;;
1446;SDS011;717;51.522;7.266;2023-04-09T02:07:02;27.73;;;18.08;;
1446;SDS011;717;51.522;7.266;2023-04-09T02:09:34;26.38;;;17.92;;
1446;SDS011;717;51.522;7.266;2023-04-09T02:12:05;28.00;;;17.67;;
1446;SDS011;717;51.522;7.266;2023-04-09T02:14:41;22.35;;;16.83;;
1446;SDS011;717;51.522;7.266;2023-04-09T02:17:12;27.20;;;17.77;;
1446;SDS011;717;51.522;7.266;2023-04-09T02:19:41;26.10;;;17.55;;
1446;SDS011;717;51.522;7.266;2023-04-09T02:22:12;23.55;;;17.25;;
1446;SDS011;717;51.522;7.266;2023-04-09T02:24:41;24.35;;;16.90;;
1446;SDS011;717;51.522;7.266;2023-04-09T02:27:10;24.85;;;17.20;;
1446;SDS011;717;51.522;7.266;2023-04-09T02:29:41;26.60;;;17.90;;
1446;SDS011;717;51.522;7.266;2023-04-09T02:32:10;26.30;;;16.88;;
1446;SDS011;717;51.522;7.266;2023-04-09T02:34:38;25.15;;;16.25;;
1446;SDS011;717;51.522;7.266;2023-04-09T02:37:07;24.63;;;17.45;;
1446;SDS011;717;51.522;7.266;2023-04-09T02:39:36;23.83;;;17.20;;
1446;SDS011;717;51.522;7.266;2023-04-09T02:42:04;26.70;;;18.08;;
1446;SDS011;717;51.522;7.266;2023-04-09T02:44:34;27.67;;;18.83;;
1446;SDS011;717;51.522;7.266;2023-04-09T02:47:05;30.30;;;18.83;;
1446;SDS011;717;51.522;7.266;2023-04-09T02:49:33;27.55;;;16.95;;
1446;SDS011;717;51.522;7.266;2023-04-09T02:52:02;25.92;;;17.33;;
1446;SDS011;717;51.522;7.266;2023-04-09T02:54:30;25.05;;;16.60;;
1446;SDS011;717;51.522;7.266;2023-04-09T02:56:59;26.80;;;17.45;;
1446;SDS011;717;51.522;7.266;2023-04-09T02:59:27;27.67;;;17.13;;
1446;SDS011;717;51.522;7.266;2023-04-09T03:01:57;26.35;;;17.48;;
1446;SDS011;717;51.522;7.266;2023-04-09T03:04:28;26.20;;;17.65;;
1446;SDS011;717;51.522;7.266;2023-04-09T03:06:56;26.27;;;18.08;;
1446;SDS011;717;51.522;7.266;2023-04-09T03:09:25;25.98;;;16.88;;
1446;SDS011;717;51.522;7.266;2023-04-09T03:11:54;25.75;;;17.25;;
1446;SDS011;717;51.522;7.266;2023-04-09T03:14:23;26.90;;;17.17;;
1446;SDS011;717;51.522;7.266;2023-04-09T03:16:51;27.63;;;17.05;;
1446;SDS011;717;51.522;7.266;2023-04-09T03:19:20;28.08;;;17.00;;
1446;SDS011;717;51.522;7.266;2023-04-09T03:21:51;23.65;;;16.10;;
1446;SDS011;717;51.522;7.266;2023-04-09T03:24:19;27.67;;;17.67;;
1446;SDS011;717;51.522;7.266;2023-04-09T03:26:48;25.80;;;16.83;;
1446;SDS011;717;51.522;7.266;2023-04-09T03:29:16;25.93;;;16.73;;
1446;SDS011;717;51.522;7.266;2023-04-09T03:31:46;24.40;;;16.75;;
1446;SDS011;717;51.522;7.266;2023-04-09T03:34:14;28.88;;;17.38;;
1446;SDS011;717;51.522;7.266;2023-04-09T03:36:43;32.17;;;19.42;;
1446;SDS011;717;51.522;7.266;2023-04-09T03:39:14;30.38;;;19.02;;
1446;SDS011;717;51.522;7.266;2023-04-09T03:41:43;28.40;;;18.58;;
1446;SDS011;717;51.522;7.266;2023-04-09T03:44:11;27.40;;;17.93;;
1446;SDS011;717;51.522;7.266;2023-04-09T03:46:40;29.77;;;18.38;;
1446;SDS011;717;51.522;7.266;2023-04-09T03:49:09;30.65;;;18.67;;
1446;SDS011;717;51.522;7.266;2023-04-09T03:51:37;30.55;;;18.13;;
1446;SDS011;717;51.522;7.266;2023-04-09T03:54:06;29.60;;;18.33;;
1446;SDS011;717;51.522;7.266;2023-04-09T03:56:37;29.33;;;17.97;;
1446;SDS011;717;51.522;7.266;2023-04-09T03:59:05;26.13;;;17.53;;
1446;SDS011;717;51.522;7.266;2023-04-09T04:01:35;25.13;;;17.37;;
1446;SDS011;717;51.522;7.266;2023-04-09T04:04:03;30.17;;;17.73;;
1446;SDS011;717;51.522;7.266;2023-04-09T04:06:32;24.55;;;16.73;;
1446;SDS011;717;51.522;7.266;2023-04-09T04:09:01;25.95;;;17.40;;
1446;SDS011;717;51.522;7.266;2023-04-09T04:11:30;27.38;;;18.00;;
1446;SDS011;717;51.522;7.266;2023-04-09T04:14:01;29.40;;;18.15;;
1446;SDS011;717;51.522;7.266;2023-04-09T04:16:30;27.30;;;17.95;;
1446;SDS011;717;51.522;7.266;2023-04-09T04:18:58;26.40;;;17.48;;
1446;SDS011;717;51.522;7.266;2023-04-09T04:21:27;28.27;;;18.25;;
1446;SDS011;717;51.522;7.266;2023-04-09T04:23:56;27.70;;;17.95;;
1446;SDS011;717;51.522;7.266;2023-04-09T04:26:25;26.95;;;17.95;;
1446;SDS011;717;51.522;7.266;2023-04-09T04:28:53;26.30;;;16.83;;
1446;SDS011;717;51.522;7.266;2023-04-09T04:31:24;26.70;;;16.90;;
1446;SDS011;717;51.522;7.266;2023-04-09T04:33:53;27.08;;;17.33;;
1446;SDS011;717;51.522;7.266;2023-04-09T04:36:22;26.93;;;17.87;;
1446;SDS011;717;51.522;7.266;2023-04-09T04:38:51;27.10;;;17.53;;
1446;SDS011;717;51.522;7.266;2023-04-09T04:41:19;29.88;;;18.17;;
1446;SDS011;717;51.522;7.266;2023-04-09T04:43:48;28.47;;;18.60;;
1446;SDS011;717;51.522;7.266;2023-04-09T04:46:17;28.93;;;18.90;;
1446;SDS011;717;51.522;7.266;2023-04-09T04:48:48;29.13;;;19.27;;
1446;SDS011;717;51.522;7.266;2023-04-09T04:51:17;31.55;;;18.63;;
1446;SDS011;717;51.522;7.266;2023-04-09T04:53:45;31.90;;;19.25;;
1446;SDS011;717;51.522;7.266;2023-04-09T04:56:14;31.15;;;19.77;;
1446;SDS011;717;51.522;7.266;2023-04-09T04:58:42;30.75;;;19.50;;
1446;SDS011;717;51.522;7.266;2023-04-09T05:01:11;29.42;;;18.70;;
1446;SDS011;717;51.522;7.266;2023-04-09T05:03:40;30.92;;;19.67;;
1446;SDS011;717;51.522;7.266;2023-04-09T05:06:11;28.20;;;18.77;;
1446;SDS011;717;51.522;7.266;2023-04-09T05:08:40;32.60;;;19.00;;
1446;SDS011;717;51.522;7.266;2023-04-09T05:11:10;28.93;;;19.60;;
1446;SDS011;717;51.522;7.266;2023-04-09T05:13:40;26.57;;;17.60;;
1446;SDS011;717;51.522;7.266;2023-04-09T05:16:14;31.33;;;18.60;;
1446;SDS011;717;51.522;7.266;2023-04-09T05:18:43;27.88;;;18.45;;
1446;SDS011;717;51.522;7.266;2023-04-09T05:21:14;27.33;;;18.17;;
1446;SDS011;717;51.522;7.266;2023-04-09T05:23:43;30.55;;;19.15;;
1446;SDS011;717;51.522;7.266;2023-04-09T05:26:11;28.30;;;18.13;;
1446;SDS011;717;51.522;7.266;2023-04-09T05:28:40;29.37;;;19.27;;
1446;SDS011;717;51.522;7.266;2023-04-09T05:31:09;28.58;;;19.65;;
1446;SDS011;717;51.522;7.266;2023-04-09T05:33:39;29.30;;;19.35;;
1446;SDS011;717;51.522;7.266;2023-04-09T05:36:13;27.10;;;18.57;;
1446;SDS011;717;51.522;7.266;2023-04-09T05:38:45;27.80;;;18.17;;
1446;SDS011;717;51.522;7.266;2023-04-09T05:41:14;27.33;;;17.67;;
1446;SDS011;717;51.522;7.266;2023-04-09T05:43:43;32.17;;;18.42;;
1446;SDS011;717;51.522;7.266;2023-04-09T05:46:11;28.10;;;18.67;;
1446;SDS011;717;51.522;7.266;2023-04-09T05:48:40;29.70;;;18.20;;
1446;SDS011;717;51.522;7.266;2023-04-09T05:51:08;27.50;;;18.10;;
1446;SDS011;717;51.522;7.266;2023-04-09T05:53:40;28.02;;;18.33;;
1446;SDS011;717;51.522;7.266;2023-04-09T05:56:11;25.42;;;17.35;;
1446;SDS011;717;51.522;7.266;2023-04-09T05:58:41;27.23;;;17.97;;
1446;SDS011;717;51.522;7.266;2023-04-09T06:01:10;26.13;;;17.35;;
1446;SDS011;717;51.522;7.266;2023-04-09T06:03:38;24.67;;;17.40;;
1446;SDS011;717;51.522;7.266;2023-04-09T06:06:07;25.27;;;16.77;;
1446;SDS011;717;51.522;7.266;2023-04-09T06:08:36;28.20;;;18.00;;
1446;SDS011;717;51.522;7.266;2023-04-09T06:11:10;28.50;;;19.03;;
1446;SDS011;717;51.522;7.266;2023-04-09T06:13:39;28.27;;;18.00;;
1446;SDS011;717;51.522;7.266;2023-04-09T06:16:08;25.63;;;17.75;;
1446;SDS011;717;51.522;7.266;2023-04-09T06:18:36;27.63;;;17.88;;
1446;SDS011;717;51.522;7.266;2023-04-09T06:21:07;27.90;;;17.85;;
1446;SDS011;717;51.522;7.266;2023-04-09T06:23:37;26.03;;;17.17;;
1446;SDS011;717;51.522;7.266;2023-04-09T06:26:06;24.10;;;16.77;;
1446;SDS011;717;51.522;7.266;2023-04-09T06:28:38;23.77;;;16.80;;
1446;SDS011;717;51.522;7.266;2023-04-09T06:31:07;21.77;;;15.80;;
1446;SDS011;717;51.522;7.266;2023-04-09T06:33:36;25.17;;;17.10;;
1446;SDS011;717;51.522;7.266;2023-04-09T06:36:05;27.75;;;18.42;;
1446;SDS011;717;51.522;7.266;2023-04-09T06:38:34;24.42;;;16.55;;
1446;SDS011;717;51.522;7.266;2023-04-09T06:41:03;25.73;;;16.33;;
1446;SDS011;717;51.522;7.266;2023-04-09T06:43:35;23.70;;;16.70;;
1446;SDS011;717;51.522;7.266;2023-04-09T06:46:05;24.50;;;16.83;;
1446;SDS011;717;51.522;7.266;2023-04-09T06:48:33;23.85;;;16.48;;
1446;SDS011;717;51.522;7.266;2023-04-09T06:51:02;21.87;;;15.63;;
1446;SDS011;717;51.522;7.266;2023-04-09T06:53:33;22.10;;;16.03;;
1446;SDS011;717;51.522;7.266;2023-04-09T06:56:01;21.83;;;15.52;;
1446;SDS011;717;51.522;7.266;2023-04-09T06:58:30;21.90;;;15.70;;
1446;SDS011;717;51.522;7.266;2023-04-09T07:01:02;21.90;;;15.13;;
1446;SDS011;717;51.522;7.266;2023-04-09T07:03:31;21.60;;;15.35;;
1446;SDS011;717;51.522;7.266;2023-04-09T07:05:59;19.83;;;14.23;;
1446;SDS011;717;51.522;7.266;2023-04-09T07:08:28;19.80;;;13.73;;
1446;SDS011;717;51.522;7.266;2023-04-09T07:10:57;22.42;;;13.93;;
1446;SDS011;717;51.522;7.266;2023-04-09T07:13:25;18.88;;;13.82;;
1446;SDS011;717;51.522;7.266;2023-04-09T07:15:55;16.92;;;12.75;;
1446;SDS011;717;51.522;7.266;2023-04-09T07:18:26;19.45;;;13.30;;
1446;SDS011;717;51.522;7.266;2023-04-09T07:20:55;16.92;;;11.43;;
1446;SDS011;717;51.522;7.266;2023-04-09T07:23:23;18.35;;;12.38;;
1446;SDS011;717;51.522;7.266;2023-04-09T07:25:52;17.35;;;12.13;;
1446;SDS011;717;51.522;7.266;2023-04-09T07:28:20;18.90;;;13.40;;
1446;SDS011;717;51.522;7.266;2023-04-09T07:30:49;19.50;;;12.57;;
1446;SDS011;717;51.522;7.266;2023-04-09T07:33:17;19.05;;;12.93;;
1446;SDS011;717;51.522;7.266;2023-04-09T07:35:48;18.38;;;13.73;;
1446;SDS011;717;51.522;7.266;2023-04-09T07:38:17;19.20;;;14.45;;
1446;SDS011;717;51.522;7.266;2023-04-09T07:40:46;23.75;;;16.35;;
1446;SDS011;717;51.522;7.266;2023-04-09T07:43:14;23.17;;;15.18;;
1446;SDS011;717;51.522;7.266;2023-04-09T07:45:43;22.45;;;15.18;;
1446;SDS011;717;51.522;7.266;2023-04-09T07:48:11;23.08;;;14.25;;
1446;SDS011;717;51.522;7.266;2023-04-09T07:50:40;21.15;;;13.73;;
1446;SDS011;717;51.522;7.266;2023-04-09T07:53:11;19.88;;;14.13;;
1446;SDS011;717;51.522;7.266;2023-04-09T07:55:40;19.52;;;14.00;;
1446;SDS011;717;51.522;7.266;2023-04-09T07:58:09;15.95;;;12.23;;
1446;SDS011;717;51.522;7.266;2023-04-09T08:00:37;17.48;;;12.63;;
1446;SDS011;717;51.522;7.266;2023-04-09T08:03:06;15.75;;;11.20;;
1446;SDS011;717;51.522;7.266;2023-04-09T08:05:34;14.20;;;10.65;;
1446;SDS011;717;51.522;7.266;2023-04-09T08:08:04;17.05;;;11.45;;
1446;SDS011;717;51.522;7.266;2023-04-09T08:10:35;15.07;;;10.73;;
1446;SDS011;717;51.522;7.266;2023-04-09T08:13:04;15.43;;;11.57;;
1446;SDS011;717;51.522;7.266;2023-04-09T08:15:32;14.38;;;11.27;;
1446;SDS011;717;51.522;7.266;2023-04-09T08:18:01;14.20;;;10.90;;
1446;SDS011;717;51.522;7.266;2023-04-09T08:20:30;15.60;;;10.25;;
1446;SDS011;717;51.522;7.266;2023-04-09T08:22:58;13.77;;;10.23;;
1446;SDS011;717;51.522;7.266;2023-04-09T08:25:27;14.60;;;10.82;;
1446;SDS011;717;51.522;7.266;2023-04-09T08:27:58;14.85;;;11.27;;
1446;SDS011;717;51.522;7.266;2023-04-09T08:30:27;13.55;;;10.43;;
1446;SDS011;717;51.522;7.266;2023-04-09T08:32:58;14.07;;;10.68;;
1446;SDS011;717;51.522;7.266;2023-04-09T08:35:28;13.85;;;10.23;;
1446;SDS011;717;51.522;7.266;2023-04-09T08:37:57;13.85;;;10.65;;
1446;SDS011;717;51.522;7.266;2023-04-09T08:40:26;13.40;;;10.75;;
1446;SDS011;717;51.522;7.266;2023-04-09T08:42:55;12.73;;;9.98;;
1446;SDS011;717;51.522;7.266;2023-04-09T08:45:26;11.80;;;9.38;;
1446;SDS011;717;51.522;7.266;2023-04-09T08:47:55;12.07;;;9.20;;
1446;SDS011;717;51.522;7.266;2023-04-09T08:50:24;11.60;;;8.63;;
1446;SDS011;717;51.522;7.266;2023-04-09T08:52:53;9.50;;;7.63;;
1446;SDS011;717;51.522;7.266;2023-04-09T08:55:23;8.23;;;6.50;;
1446;SDS011;717;51.522;7.266;2023-04-09T08:57:52;7.68;;;6.28;;
1446;SDS011;717;51.522;7.266;2023-04-09T09:00:24;6.85;;;6.15;;
1446;SDS011;717;51.522;7.266;2023-04-09T09:03:03;7.78;;;6.30;;
1446;SDS011;717;51.522;7.266;2023-04-09T09:05:36;7.10;;;5.30;;
1446;SDS011;717;51.522;7.266;2023-04-09T09:08:06;7.05;;;5.85;;
1446;SDS011;717;51.522;7.266;2023-04-09T09:10:39;6.45;;;5.18;;
1446;SDS011;717;51.522;7.266;2023-04-09T09:13:15;7.15;;;6.00;;
1446;SDS011;717;51.522;7.266;2023-04-09T09:15:51;6.15;;;5.55;;
1446;SDS011;717;51.522;7.266;2023-04-09T09:18:36;8.07;;;6.35;;
1446;SDS011;717;51.522;7.266;2023-04-09T09:21:09;7.40;;;6.60;;
1446;SDS011;717;51.522;7.266;2023-04-09T09:23:38;7.00;;;5.95;;
1446;SDS011;717;51.522;7.266;2023-04-09T09:26:10;6.95;;;5.85;;
1446;SDS011;717;51.522;7.266;2023-04-09T09:28:40;7.47;;;6.78;;
1446;SDS011;717;51.522;7.266;2023-04-09T09:31:11;7.35;;;6.50;;
1446;SDS011;717;51.522;7.266;2023-04-09T09:33:41;8.88;;;6.85;;
1446;SDS011;717;51.522;7.266;2023-04-09T09:36:09;8.50;;;6.80;;
1446;SDS011;717;51.522;7.266;2023-04-09T09:38:50;8.57;;;7.28;;
1446;SDS011;717;51.522;7.266;2023-04-09T09:41:21;7.50;;;6.70;;
1446;SDS011;717;51.522;7.266;2023-04-09T09:43:50;7.70;;;6.88;;
1446;SDS011;717;51.522;7.266;2023-04-09T09:46:22;8.85;;;7.25;;
1446;SDS011;717;51.522;7.266;2023-04-09T09:48:52;9.18;;;7.47;;
1446;SDS011;717;51.522;7.266;2023-04-09T09:51:21;8.38;;;6.95;;
1446;SDS011;717;51.522;7.266;2023-04-09T09:53:53;8.38;;;6.93;;
1446;SDS011;717;51.522;7.266;2023-04-09T09:56:24;7.35;;;6.60;;
1446;SDS011;717;51.522;7.266;2023-04-09T10:01:48;8.30;;;6.70;;
1446;SDS011;717;51.522;7.266;2023-04-09T10:04:26;7.32;;;6.20;;
1446;SDS011;717;51.522;7.266;2023-04-09T10:06:56;7.05;;;6.22;;
1446;SDS011;717;51.522;7.266;2023-04-09T10:09:25;7.57;;;6.78;;
1446;SDS011;717;51.522;7.266;2023-04-09T10:11:55;7.88;;;6.53;;
1446;SDS011;717;51.522;7.266;2023-04-09T10:14:26;7.60;;;6.80;;
1446;SDS011;717;51.522;7.266;2023-04-09T10:16:58;7.32;;;6.55;;
1446;SDS011;717;51.522;7.266;2023-04-09T10:19:28;8.23;;;6.75;;
1446;SDS011;717;51.522;7.266;2023-04-09T10:21:58;6.95;;;6.20;;
1446;SDS011;717;51.522;7.266;2023-04-09T10:24:31;7.63;;;6.82;;
1446;SDS011;717;51.522;7.266;2023-04-09T10:27:08;8.18;;;7.13;;
1446;SDS011;717;51.522;7.266;2023-04-09T10:29:41;7.95;;;6.85;;
1446;SDS011;717;51.522;7.266;2023-04-09T10:32:17;7.90;;;7.10;;
1446;SDS011;717;51.522;7.266;2023-04-09T10:34:47;8.15;;;7.28;;
1446;SDS011;717;51.522;7.266;2023-04-09T10:37:19;10.30;;;7.10;;
1446;SDS011;717;51.522;7.266;2023-04-09T10:39:49;7.63;;;6.85;;
1446;SDS011;717;51.522;7.266;2023-04-09T10:42:19;8.70;;;6.40;;
1446;SDS011;717;51.522;7.266;2023-04-09T10:45:02;7.60;;;6.80;;
1446;SDS011;717;51.522;7.266;2023-04-09T10:47:35;8.20;;;7.00;;
1446;SDS011;717;51.522;7.266;2023-04-09T10:50:15;6.93;;;6.20;;
1446;SDS011;717;51.522;7.266;2023-04-09T10:52:44;7.18;;;6.40;;
1446;SDS011;717;51.522;7.266;2023-04-09T10:58:03;7.40;;;6.50;;
1446;SDS011;717;51.522;7.266;2023-04-09T11:00:35;6.78;;;6.07;;
1446;SDS011;717;51.522;7.266;2023-04-09T11:03:21;7.57;;;6.78;;
1446;SDS011;717;51.522;7.266;2023-04-09T11:05:53;6.85;;;6.05;;
1446;SDS011;717;51.522;7.266;2023-04-09T11:08:28;6.68;;;5.97;;
1446;SDS011;717;51.522;7.266;2023-04-09T11:10:58;6.45;;;5.85;;
1446;SDS011;717;51.522;7.266;2023-04-09T11:13:28;6.47;;;5.80;;
1446;SDS011;717;51.522;7.266;2023-04-09T11:15:58;7.13;;;6.32;;
1446;SDS011;717;51.522;7.266;2023-04-09T11:18:30;6.55;;;5.80;;
1446;SDS011;717;51.522;7.266;2023-04-09T11:21:01;6.63;;;5.95;;
1446;SDS011;717;51.522;7.266;2023-04-09T11:23:31;6.90;;;6.18;;
1446;SDS011;717;51.522;7.266;2023-04-09T11:26:00;6.53;;;5.93;;
1446;SDS011;717;51.522;7.266;2023-04-09T11:28:29;5.38;;;4.88;;
1446;SDS011;717;51.522;7.266;2023-04-09T11:30:57;6.15;;;5.28;;
1446;SDS011;717;51.522;7.266;2023-04-09T11:33:33;5.97;;;5.38;;
1446;SDS011;717;51.522;7.266;2023-04-09T11:36:03;6.50;;;5.90;;
1446;SDS011;717;51.522;7.266;2023-04-09T11:38:32;5.90;;;5.30;;
1446;SDS011;717;51.522;7.266;2023-04-09T11:41:00;7.30;;;5.25;;
1446;SDS011;717;51.522;7.266;2023-04-09T11:43:29;6.18;;;5.57;;
1446;SDS011;717;51.522;7.266;2023-04-09T11:45:58;5.25;;;4.75;;
1446;SDS011;717;51.522;7.266;2023-04-09T11:48:27;5.88;;;5.18;;
1446;SDS011;717;51.522;7.266;2023-04-09T11:50:58;6.10;;;5.50;;
1446;SDS011;717;51.522;7.266;2023-04-09T11:53:29;5.70;;;5.13;;
1446;SDS011;717;51.522;7.266;2023-04-09T11:55:57;5.70;;;5.10;;
1446;SDS011;717;51.522;7.266;2023-04-09T11:58:26;6.22;;;5.63;;
1446;SDS011;717;51.522;7.266;2023-04-09T12:00:56;6.28;;;5.68;;
1446;SDS011;717;51.522;7.266;2023-04-09T12:03:28;6.40;;;5.80;;
1446;SDS011;717;51.522;7.266;2023-04-09T12:06:01;6.80;;;5.93;;
1446;SDS011;717;51.522;7.266;2023-04-09T12:08:32;6.93;;;6.22;;
1446;SDS011;717;51.522;7.266;2023-04-09T12:11:08;6.50;;;5.90;;
1446;SDS011;717;51.522;7.266;2023-04-09T12:13:37;5.85;;;5.25;;
1446;SDS011;717;51.522;7.266;2023-04-09T12:16:08;6.60;;;5.63;;
1446;SDS011;717;51.522;7.266;2023-04-09T12:18:37;6.28;;;5.60;;
1446;SDS011;717;51.522;7.266;2023-04-09T12:21:09;6.22;;;5.63;;
1446;SDS011;717;51.522;7.266;2023-04-09T12:23:37;5.63;;;5.13;;
1446;SDS011;717;51.522;7.266;2023-04-09T12:26:06;6.75;;;6.05;;
1446;SDS011;717;51.522;7.266;2023-04-09T12:28:34;6.10;;;5.55;;
1446;SDS011;717;51.522;7.266;2023-04-09T12:31:03;6.45;;;5.85;;
1446;SDS011;717;51.522;7.266;2023-04-09T12:33:31;6.82;;;5.80;;
1446;SDS011;717;51.522;7.266;2023-04-09T12:36:02;5.97;;;5.38;;
1446;SDS011;717;51.522;7.266;2023-04-09T12:38:34;6.38;;;5.78;;
1446;SDS011;717;51.522;7.266;2023-04-09T12:41:02;6.60;;;6.00;;
1446;SDS011;717;51.522;7.266;2023-04-09T12:43:31;5.80;;;5.28;;
1446;SDS011;717;51.522;7.266;2023-04-09T12:46:00;5.95;;;5.38;;
1446;SDS011;717;51.522;7.266;2023-04-09T12:48:28;6.28;;;5.72;;
1446;SDS011;717;51.522;7.266;2023-04-09T12:50:57;8.02;;;5.55;;
1446;SDS011;717;51.522;7.266;2023-04-09T12:53:25;6.05;;;5.50;;
1446;SDS011;717;51.522;7.266;2023-04-09T12:55:57;6.40;;;5.80;;
1446;SDS011;717;51.522;7.266;2023-04-09T12:58:25;6.38;;;5.78;;
1446;SDS011;717;51.522;7.266;2023-04-09T13:00:54;5.50;;;5.00;;
1446;SDS011;717;51.522;7.266;2023-04-09T13:03:23;6.80;;;6.10;;
1446;SDS011;717;51.522;7.266;2023-04-09T13:05:53;6.00;;;5.40;;
1446;SDS011;717;51.522;7.266;2023-04-09T13:08:21;6.00;;;5.40;;
1446;SDS011;717;51.522;7.266;2023-04-09T13:10:50;5.80;;;5.20;;
1446;SDS011;717;51.522;7.266;2023-04-09T13:13:21;6.07;;;5.43;;
1446;SDS011;717;51.522;7.266;2023-04-09T13:15:49;5.32;;;4.82;;
1446;SDS011;717;51.522;7.266;2023-04-09T13:18:18;6.65;;;5.85;;
1446;SDS011;717;51.522;7.266;2023-04-09T13:20:46;6.13;;;5.35;;
1446;SDS011;717;51.522;7.266;2023-04-09T13:23:15;6.07;;;5.47;;
1446;SDS011;717;51.522;7.266;2023-04-09T13:25:43;6.32;;;5.70;;
1446;SDS011;717;51.522;7.266;2023-04-09T13:28:11;5.90;;;5.40;;
1446;SDS011;717;51.522;7.266;2023-04-09T13:30:43;5.90;;;5.38;;
1446;SDS011;717;51.522;7.266;2023-04-09T13:33:12;6.53;;;5.82;;
1446;SDS011;717;51.522;7.266;2023-04-09T13:35:40;6.05;;;5.45;;
1446;SDS011;717;51.522;7.266;2023-04-09T13:38:09;6.35;;;5.75;;
1446;SDS011;717;51.522;7.266;2023-04-09T13:40:37;6.50;;;5.68;;
1446;SDS011;717;51.522;7.266;2023-04-09T13:43:05;6.53;;;5.93;;
1446;SDS011;717;51.522;7.266;2023-04-09T13:45:34;6.20;;;5.60;;
1446;SDS011;717;51.522;7.266;2023-04-09T13:48:05;6.20;;;5.57;;
1446;SDS011;717;51.522;7.266;2023-04-09T13:50:34;6.10;;;5.50;;
1446;SDS011;717;51.522;7.266;2023-04-09T13:53:02;5.45;;;4.95;;
1446;SDS011;717;51.522;7.266;2023-04-09T13:55:31;6.22;;;5.45;;
1446;SDS011;717;51.522;7.266;2023-04-09T13:57:59;5.60;;;5.10;;
1446;SDS011;717;51.522;7.266;2023-04-09T14:00:28;5.97;;;5.47;;
1446;SDS011;717;51.522;7.266;2023-04-09T14:02:57;5.45;;;4.95;;
1446;SDS011;717;51.522;7.266;2023-04-09T14:05:29;5.80;;;5.30;;
1446;SDS011;717;51.522;7.266;2023-04-09T14:07:59;5.65;;;5.15;;
1446;SDS011;717;51.522;7.266;2023-04-09T14:10:27;5.43;;;5.00;;
1446;SDS011;717;51.522;7.266;2023-04-09T14:12:56;5.97;;;5.38;;
1446;SDS011;717;51.522;7.266;2023-04-09T14:15:26;6.07;;;5.47;;
1446;SDS011;717;51.522;7.266;2023-04-09T14:17:54;5.80;;;5.20;;
1446;SDS011;717;51.522;7.266;2023-04-09T14:20:23;5.63;;;5.10;;
1446;SDS011;717;51.522;7.266;2023-04-09T14:22:54;5.70;;;5.18;;
1446;SDS011;717;51.522;7.266;2023-04-09T14:25:22;5.15;;;4.65;;
1446;SDS011;717;51.522;7.266;2023-04-09T14:27:50;5.20;;;4.78;;
1446;SDS011;717;51.522;7.266;2023-04-09T14:30:19;6.40;;;5.70;;
1446;SDS011;717;51.522;7.266;2023-04-09T14:32:47;5.60;;;5.10;;
1446;SDS011;717;51.522;7.266;2023-04-09T14:35:16;5.70;;;5.20;;
1446;SDS011;717;51.522;7.266;2023-04-09T14:37:45;5.47;;;4.97;;
1446;SDS011;717;51.522;7.266;2023-04-09T14:40:16;5.88;;;5.28;;
1446;SDS011;717;51.522;7.266;2023-04-09T14:42:44;4.53;;;4.13;;
1446;SDS011;717;51.522;7.266;2023-04-09T14:45:14;5.32;;;4.82;;
1446;SDS011;717;51.522;7.266;2023-04-09T14:47:42;6.07;;;5.47;;
1446;SDS011;717;51.522;7.266;2023-04-09T14:50:11;5.13;;;4.70;;
1446;SDS011;717;51.522;7.266;2023-04-09T14:52:39;5.15;;;4.63;;
1446;SDS011;717;51.522;7.266;2023-04-09T14:55:08;4.72;;;4.32;;
1446;SDS011;717;51.522;7.266;2023-04-09T14:57:40;4.60;;;4.20;;
1446;SDS011;717;51.522;7.266;2023-04-09T15:00:09;4.60;;;4.20;;
1446;SDS011;717;51.522;7.266;2023-04-09T15:02:38;5.07;;;4.57;;
1446;SDS011;717;51.522;7.266;2023-04-09T15:05:07;5.22;;;4.72;;
1446;SDS011;717;51.522;7.266;2023-04-09T15:07:36;5.30;;;4.90;;
1446;SDS011;717;51.522;7.266;2023-04-09T15:10:06;5.35;;;4.85;;
1446;SDS011;717;51.522;7.266;2023-04-09T15:12:35;5.03;;;4.60;;
1446;SDS011;717;51.522;7.266;2023-04-09T15:15:07;5.18;;;4.78;;
1446;SDS011;717;51.522;7.266;2023-04-09T15:17:38;5.57;;;5.00;;
1446;SDS011;717;51.522;7.266;2023-04-09T15:20:06;4.93;;;4.53;;
1446;SDS011;717;51.522;7.266;2023-04-09T15:22:35;5.43;;;4.90;;
1446;SDS011;717;51.522;7.266;2023-04-09T15:25:04;4.88;;;4.47;;
1446;SDS011;717;51.522;7.266;2023-04-09T15:27:33;5.07;;;4.57;;
1446;SDS011;717;51.522;7.266;2023-04-09T15:30:02;5.60;;;4.75;;
1446;SDS011;717;51.522;7.266;2023-04-09T15:32:34;4.80;;;4.40;;
1446;SDS011;717;51.522;7.266;2023-04-09T15:35:03;4.80;;;4.40;;